createdAt,value
2017-04-25T00:00:01.024Z,62.86
2017-04-25T00:00:59.603Z,62.89
2017-04-25T00:01:58.164Z,63.09
2017-04-25T00:02:56.719Z,62.78
2017-04-25T00:03:55.263Z,62.55
2017-04-25T00:04:53.819Z,62.70
2017-04-25T00:05:52.690Z,63.07
2017-04-25T00:06:51.259Z,62.59
2017-04-25T00:07:49.901Z,62.48
2017-04-25T00:08:48.530Z,62.78
2017-04-25T00:09:47.064Z,63.13
2017-04-25T00:10:45.580Z,63.05
2017-04-25T00:11:44.163Z,63.02
2017-04-25T00:12:42.778Z,62.97
2017-04-25T00:13:41.334Z,62.62
2017-04-25T00:14:39.850Z,63.18
2017-04-25T00:15:38.388Z,63.14
2017-04-25T00:16:37.467Z,62.59
2017-04-25T00:17:36.055Z,62.96
2017-04-25T00:18:34.656Z,63.22
2017-04-25T00:19:33.163Z,63.23
2017-04-25T00:20:31.659Z,62.89
2017-04-25T00:21:30.190Z,63.72
2017-04-25T00:22:29.026Z,63.65
2017-04-25T00:23:27.605Z,63.30
2017-04-25T00:24:26.163Z,63.37
2017-04-25T00:25:24.779Z,63.12
2017-04-25T00:26:23.447Z,62.48
2017-04-25T00:27:21.962Z,62.57
2017-04-25T00:28:20.506Z,62.74
2017-04-25T00:29:19.060Z,62.80
2017-04-25T00:30:17.591Z,63.29
2017-04-25T00:31:16.137Z,63.27
2017-04-25T00:32:14.665Z,62.30
2017-04-25T00:33:13.195Z,61.85
2017-04-25T00:34:11.740Z,62.33
2017-04-25T00:35:10.334Z,61.73
2017-04-25T00:36:09.456Z,61.65
2017-04-25T00:37:07.992Z,62.19
2017-04-25T00:38:06.828Z,62.12
2017-04-25T00:39:05.911Z,61.85
2017-04-25T00:40:04.547Z,61.52
2017-04-25T00:41:03.157Z,61.50
2017-04-25T00:42:01.781Z,61.74
2017-04-25T00:43:00.424Z,61.85
2017-04-25T00:43:59.071Z,61.50
2017-04-25T00:44:57.833Z,61.52
2017-04-25T00:45:56.360Z,62.02
2017-04-25T00:46:54.935Z,61.97
2017-04-25T00:47:53.548Z,62.51
2017-04-25T00:48:52.427Z,62.32
2017-04-25T00:49:50.948Z,62.07
2017-04-25T00:50:49.610Z,62.00
2017-04-25T00:51:48.157Z,62.44
2017-04-25T00:52:46.779Z,62.23
2017-04-25T00:53:45.445Z,62.60
2017-04-25T00:54:44.064Z,62.54
2017-04-25T00:55:42.680Z,62.86
2017-04-25T00:56:41.224Z,62.83
2017-04-25T00:57:39.797Z,62.84
2017-04-25T00:58:38.343Z,63.25
2017-04-25T00:59:37.260Z,63.41
2017-04-25T01:00:35.827Z,63.35
2017-04-25T01:01:34.446Z,63.38
2017-04-25T01:02:33.018Z,63.69
2017-04-25T01:03:31.812Z,63.52
2017-04-25T01:04:30.390Z,63.49
2017-04-25T01:05:28.920Z,63.59
2017-04-25T01:06:27.456Z,63.72
2017-04-25T01:07:26.003Z,63.72
2017-04-25T01:08:24.573Z,63.85
2017-04-25T01:09:23.091Z,64.34
2017-04-25T01:10:21.939Z,63.90
2017-04-25T01:11:20.477Z,64.19
2017-04-25T01:12:19.016Z,64.20
2017-04-25T01:13:17.554Z,63.89
2017-04-25T01:14:16.123Z,63.62
2017-04-25T01:15:14.703Z,63.65
2017-04-25T01:16:13.382Z,63.73
2017-04-25T01:17:11.942Z,63.86
2017-04-25T01:18:10.529Z,63.22
2017-04-25T01:19:09.056Z,63.55
2017-04-25T01:20:07.571Z,64.93
2017-04-25T01:21:06.253Z,65.40
2017-04-25T01:22:04.795Z,65.88
2017-04-25T01:23:03.335Z,66.44
2017-04-25T01:24:02.019Z,66.64
2017-04-25T01:25:00.551Z,67.05
2017-04-25T01:25:59.067Z,66.80
2017-04-25T01:26:57.707Z,66.90
2017-04-25T01:27:56.231Z,66.90
2017-04-25T01:28:54.735Z,67.03
2017-04-25T01:29:53.228Z,67.06
2017-04-25T01:30:51.847Z,66.96
2017-04-25T01:31:50.439Z,67.13
2017-04-25T01:32:49.002Z,67.36
2017-04-25T01:33:47.539Z,67.31
2017-04-25T01:34:46.143Z,67.34
2017-04-25T01:35:44.814Z,68.06
2017-04-25T01:36:43.434Z,68.34
2017-04-25T01:37:42.043Z,68.44
2017-04-25T01:38:40.690Z,68.64
2017-04-25T01:39:39.319Z,69.09
2017-04-25T01:40:37.986Z,69.36
2017-04-25T01:41:36.759Z,69.92
2017-04-25T01:42:35.321Z,69.97
2017-04-25T01:43:33.881Z,70.16
2017-04-25T01:44:32.506Z,70.55
2017-04-25T01:45:31.047Z,71.16
2017-04-25T01:46:29.574Z,71.25
2017-04-25T01:47:28.172Z,71.57
2017-04-25T01:48:26.669Z,72.44
2017-04-25T01:49:25.381Z,72.43
2017-04-25T01:50:23.922Z,72.72
2017-04-25T01:51:22.575Z,72.96
2017-04-25T01:52:21.203Z,73.01
2017-04-25T01:53:19.711Z,72.64
2017-04-25T01:54:18.243Z,72.72
2017-04-25T01:55:17.231Z,73.13
2017-04-25T01:56:15.827Z,73.46
2017-04-25T01:57:14.551Z,74.19
2017-04-25T01:58:13.087Z,74.29
2017-04-25T01:59:11.604Z,74.15
2017-04-25T02:00:10.114Z,74.47
2017-04-25T02:01:08.803Z,74.54
2017-04-25T02:02:07.380Z,74.23
2017-04-25T02:03:05.993Z,74.58
2017-04-25T02:04:04.652Z,74.64
2017-04-25T02:05:03.282Z,74.69
2017-04-25T02:06:02.255Z,74.67
2017-04-25T02:07:00.819Z,74.89
2017-04-25T02:07:59.406Z,74.21
2017-04-25T02:08:57.997Z,74.55
2017-04-25T02:09:56.623Z,75.39
2017-04-25T02:10:55.299Z,75.46
2017-04-25T02:11:54.211Z,76.13
2017-04-25T02:12:52.805Z,76.44
2017-04-25T02:13:51.436Z,76.20
2017-04-25T02:14:49.968Z,76.32
2017-04-25T02:15:48.494Z,75.77
2017-04-25T02:16:47.004Z,76.61
2017-04-25T02:17:45.658Z,77.05
2017-04-25T02:18:44.172Z,77.62
2017-04-25T02:19:42.803Z,76.84
2017-04-25T02:20:41.442Z,76.48
2017-04-25T02:21:40.048Z,77.34
2017-04-25T02:22:38.721Z,77.07
2017-04-25T02:23:37.317Z,77.51
2017-04-25T02:24:35.883Z,77.72
2017-04-25T02:25:34.459Z,77.32
2017-04-25T02:26:32.965Z,79.07
2017-04-25T02:27:31.611Z,79.02
2017-04-25T02:28:30.154Z,78.85
2017-04-25T02:29:28.779Z,78.13
2017-04-25T02:30:27.355Z,77.22
2017-04-25T02:31:25.881Z,77.52
2017-04-25T02:32:24.743Z,77.73
2017-04-25T02:33:23.295Z,76.95
2017-04-25T02:34:21.792Z,76.87
2017-04-25T02:35:20.319Z,77.69
2017-04-25T02:36:18.907Z,77.54
2017-04-25T02:37:17.415Z,77.94
2017-04-25T02:38:16.001Z,78.05
2017-04-25T02:39:14.589Z,77.84
2017-04-25T02:40:13.114Z,78.58
2017-04-25T02:41:11.615Z,78.77
2017-04-25T02:42:10.178Z,79.24
2017-04-25T02:43:08.975Z,79.08
2017-04-25T02:44:07.530Z,79.66
2017-04-25T02:45:06.023Z,79.58
2017-04-25T02:46:04.574Z,79.96
2017-04-25T02:47:03.135Z,79.97
2017-04-25T02:48:01.660Z,79.65
2017-04-25T02:49:00.214Z,80.19
2017-04-25T02:49:58.729Z,80.21
2017-04-25T02:50:57.255Z,79.35
2017-04-25T02:51:55.757Z,79.85
2017-04-25T02:52:54.295Z,79.17
2017-04-25T02:53:53.235Z,79.47
2017-04-25T02:54:51.771Z,79.65
2017-04-25T02:55:50.282Z,80.15
2017-04-25T02:56:48.858Z,79.88
2017-04-25T02:57:47.398Z,80.70
2017-04-25T02:58:45.944Z,81.34
2017-04-25T02:59:44.492Z,81.64
2017-04-25T03:00:42.984Z,81.88
2017-04-25T03:01:41.611Z,81.25
2017-04-25T03:02:40.257Z,80.67
2017-04-25T03:03:38.763Z,80.60
2017-04-25T03:04:37.270Z,80.53
2017-04-25T03:05:36.223Z,81.34
2017-04-25T03:06:34.834Z,81.31
2017-04-25T03:07:33.668Z,81.00
2017-04-25T03:08:32.190Z,80.32
2017-04-25T03:09:30.780Z,81.63
2017-04-25T03:10:29.293Z,81.81
2017-04-25T03:11:28.103Z,81.30
2017-04-25T03:12:26.657Z,81.44
2017-04-25T03:13:25.275Z,82.45
2017-04-25T03:14:23.779Z,80.66
2017-04-25T03:15:22.283Z,81.13
2017-04-25T03:16:20.886Z,80.72
2017-04-25T03:17:19.524Z,80.70
2017-04-25T03:18:18.127Z,80.49
2017-04-25T03:19:16.747Z,80.20
2017-04-25T03:20:15.364Z,80.21
2017-04-25T03:21:14.006Z,81.36
2017-04-25T03:22:12.591Z,81.67
2017-04-25T03:23:11.143Z,81.39
2017-04-25T03:24:09.722Z,80.03
2017-04-25T03:25:08.298Z,80.14
2017-04-25T03:26:06.867Z,81.02
2017-04-25T03:27:05.479Z,80.76
2017-04-25T03:28:04.022Z,80.50
2017-04-25T03:29:02.567Z,80.33
2017-04-25T03:30:01.062Z,80.95
2017-04-25T03:30:59.565Z,80.28
2017-04-25T03:31:58.095Z,81.05
2017-04-25T03:32:56.598Z,81.25
2017-04-25T03:33:55.459Z,81.65
2017-04-25T03:34:54.103Z,81.57
2017-04-25T03:35:52.703Z,83.28
2017-04-25T03:36:51.230Z,83.09
2017-04-25T03:37:49.784Z,82.57
2017-04-25T03:38:48.319Z,82.34
2017-04-25T03:39:46.955Z,81.53
2017-04-25T03:40:45.511Z,81.80
2017-04-25T03:41:44.132Z,81.70
2017-04-25T03:42:42.723Z,81.32
2017-04-25T03:43:41.245Z,81.78
2017-04-25T03:44:40.152Z,81.99
2017-04-25T03:45:38.711Z,82.51
2017-04-25T03:46:37.210Z,83.64
2017-04-25T03:47:35.691Z,81.66
2017-04-25T03:48:34.188Z,81.94
2017-04-25T03:49:32.813Z,81.95
2017-04-25T03:50:31.340Z,81.69
2017-04-25T03:51:29.847Z,82.06
2017-04-25T03:52:28.356Z,82.52
2017-04-25T03:53:26.908Z,81.45
2017-04-25T03:54:25.559Z,81.90
2017-04-25T03:55:24.111Z,82.81
2017-04-25T03:56:22.638Z,81.77
2017-04-25T03:57:21.154Z,81.38
2017-04-25T03:58:19.727Z,81.55
2017-04-25T03:59:18.317Z,82.27
2017-04-25T04:00:16.953Z,81.47
2017-04-25T04:01:15.531Z,81.19
2017-04-25T04:02:14.062Z,81.87
2017-04-25T04:03:12.590Z,81.83
2017-04-25T04:04:11.096Z,81.32
2017-04-25T04:05:09.680Z,81.06
2017-04-25T04:06:08.330Z,81.47
2017-04-25T04:07:07.093Z,80.72
2017-04-25T04:08:05.609Z,80.57
2017-04-25T04:09:04.410Z,81.82
2017-04-25T04:10:02.988Z,81.56
2017-04-25T04:11:01.500Z,81.35
2017-04-25T04:12:00.098Z,81.47
2017-04-25T04:12:58.657Z,81.44
2017-04-25T04:13:57.169Z,81.87
2017-04-25T04:14:55.702Z,80.88
2017-04-25T04:15:54.278Z,81.47
2017-04-25T04:16:57.239Z,80.99
2017-04-25T04:17:55.792Z,80.94
2017-04-25T04:18:54.312Z,81.61
2017-04-25T04:19:52.822Z,80.09
2017-04-25T04:20:51.334Z,80.25
2017-04-25T04:21:49.896Z,79.86
2017-04-25T04:22:48.819Z,79.83
2017-04-25T04:23:47.392Z,80.38
2017-04-25T04:24:46.035Z,79.95
2017-04-25T04:25:44.684Z,80.69
2017-04-25T04:26:43.283Z,81.04
2017-04-25T04:27:41.920Z,80.65
2017-04-25T04:28:40.487Z,79.51
2017-04-25T04:29:38.999Z,79.51
2017-04-25T04:30:37.511Z,79.78
2017-04-25T04:31:36.129Z,80.61
2017-04-25T04:32:34.656Z,80.33
2017-04-25T04:33:33.196Z,79.27
2017-04-25T04:34:31.763Z,79.00
2017-04-25T04:35:30.474Z,79.52
2017-04-25T04:36:29.059Z,79.79
2017-04-25T04:37:27.645Z,80.40
2017-04-25T04:38:26.181Z,80.88
2017-04-25T04:39:24.744Z,80.53
2017-04-25T04:40:23.364Z,80.50
2017-04-25T04:41:21.979Z,81.12
2017-04-25T04:42:20.483Z,79.92
2017-04-25T04:43:18.996Z,80.21
2017-04-25T04:44:17.885Z,80.81
2017-04-25T04:45:16.547Z,80.15
2017-04-25T04:46:15.084Z,79.51
2017-04-25T04:47:13.623Z,79.49
2017-04-25T04:48:12.148Z,79.62
2017-04-25T04:49:10.667Z,80.17
2017-04-25T04:50:09.218Z,79.75
2017-04-25T04:51:07.803Z,79.73
2017-04-25T04:52:06.338Z,80.72
2017-04-25T04:53:04.847Z,79.47
2017-04-25T04:54:03.411Z,79.77
2017-04-25T04:55:02.048Z,80.03
2017-04-25T04:56:00.733Z,80.05
2017-04-25T04:56:59.286Z,80.53
2017-04-25T04:57:57.988Z,80.64
2017-04-25T04:58:56.788Z,80.84
2017-04-25T04:59:55.307Z,80.18
2017-04-25T05:00:53.915Z,80.32
2017-04-25T05:01:52.487Z,80.50
2017-04-25T05:02:51.130Z,80.68
2017-04-25T05:03:49.756Z,80.48
2017-04-25T05:04:48.300Z,80.29
2017-04-25T05:05:47.231Z,80.07
2017-04-25T05:06:45.763Z,80.41
2017-04-25T05:07:44.431Z,79.99
2017-04-25T05:08:42.981Z,79.77
2017-04-25T05:09:41.642Z,80.00
2017-04-25T05:10:40.177Z,80.62
2017-04-25T05:11:38.856Z,79.71
2017-04-25T05:12:37.475Z,79.83
2017-04-25T05:13:36.044Z,80.01
2017-04-25T05:14:34.655Z,80.38
2017-04-25T05:15:33.241Z,80.63
2017-04-25T05:16:32.042Z,79.68
2017-04-25T05:17:30.619Z,79.70
2017-04-25T05:18:29.149Z,79.81
2017-04-25T05:19:27.679Z,79.42
2017-04-25T05:20:26.244Z,79.50
2017-04-25T05:21:25.439Z,80.10
2017-04-25T05:22:24.131Z,81.35
2017-04-25T05:23:22.723Z,79.85
2017-04-25T05:24:21.247Z,79.14
2017-04-25T05:25:19.852Z,78.99
2017-04-25T05:26:18.441Z,78.55
2017-04-25T05:27:16.963Z,79.67
2017-04-25T05:28:15.780Z,78.82
2017-04-25T05:29:14.330Z,78.84
2017-04-25T05:30:12.867Z,78.72
2017-04-25T05:31:11.391Z,78.44
2017-04-25T05:32:09.912Z,78.14
2017-04-25T05:33:08.470Z,77.81
2017-04-25T05:34:07.015Z,78.28
2017-04-25T05:35:05.535Z,78.59
2017-04-25T05:36:04.156Z,78.17
2017-04-25T05:37:02.752Z,78.62
2017-04-25T05:38:01.506Z,78.57
2017-04-25T05:39:00.178Z,78.02
2017-04-25T05:39:58.783Z,78.59
2017-04-25T05:40:57.446Z,78.49
2017-04-25T05:41:56.007Z,78.78
2017-04-25T05:42:54.557Z,78.89
2017-04-25T05:43:53.121Z,78.86
2017-04-25T05:44:51.624Z,78.60
2017-04-25T05:45:50.183Z,78.70
2017-04-25T05:46:48.696Z,79.16
2017-04-25T05:47:47.236Z,79.07
2017-04-25T05:48:45.768Z,78.74
2017-04-25T05:49:44.317Z,78.82
2017-04-25T05:50:42.855Z,78.75
2017-04-25T05:51:41.376Z,77.99
2017-04-25T05:52:39.904Z,77.72
2017-04-25T05:53:38.417Z,77.89
2017-04-25T05:54:37.315Z,78.19
2017-04-25T05:55:35.839Z,78.41
2017-04-25T05:56:34.374Z,78.17
2017-04-25T05:57:35.745Z,78.22
2017-04-25T05:58:34.702Z,78.50
2017-04-25T05:59:33.348Z,78.97
2017-04-25T06:00:32.408Z,77.63
2017-04-25T06:01:30.983Z,77.40
2017-04-25T06:02:29.591Z,77.38
2017-04-25T06:03:28.211Z,76.49
2017-04-25T06:04:26.741Z,76.38
2017-04-25T06:05:25.359Z,75.79
2017-04-25T06:06:23.978Z,76.19
2017-04-25T06:07:22.876Z,75.96
2017-04-25T06:08:21.392Z,75.51
2017-04-25T06:09:19.933Z,75.76
2017-04-25T06:10:18.488Z,73.70
2017-04-25T06:11:17.205Z,73.67
2017-04-25T06:12:15.808Z,73.57
2017-04-25T06:13:15.068Z,73.64
2017-04-25T06:14:14.545Z,71.89
2017-04-25T06:15:13.124Z,72.86
2017-04-25T06:16:11.608Z,73.57
2017-04-25T06:17:10.136Z,73.46
2017-04-25T06:18:08.892Z,72.99
2017-04-25T06:19:07.434Z,72.33
2017-04-25T06:20:05.961Z,72.65
2017-04-25T06:21:04.625Z,72.40
2017-04-25T06:22:03.660Z,71.78
2017-04-25T06:23:02.289Z,71.05
2017-04-25T06:24:02.557Z,70.22
2017-04-25T06:25:01.166Z,70.50
2017-04-25T06:25:59.871Z,70.06
2017-04-25T06:26:58.510Z,69.47
2017-04-25T06:27:57.124Z,69.28
2017-04-25T06:28:55.932Z,70.55
2017-04-25T06:29:54.612Z,68.95
2017-04-25T06:30:53.175Z,69.19
2017-04-25T06:31:51.761Z,69.42
2017-04-25T06:32:50.432Z,69.55
2017-04-25T06:33:49.099Z,70.43
2017-04-25T06:34:47.670Z,70.73
2017-04-25T06:35:46.176Z,71.25
2017-04-25T06:36:44.788Z,71.48
2017-04-25T06:37:43.431Z,68.61
2017-04-25T06:38:41.951Z,68.24
2017-04-25T06:39:40.801Z,68.56
2017-04-25T06:40:39.488Z,68.46
2017-04-25T06:41:38.119Z,69.14
2017-04-25T06:42:36.745Z,69.57
2017-04-25T06:43:35.311Z,70.24
2017-04-25T06:44:34.193Z,69.53
2017-04-25T06:45:32.804Z,68.59
2017-04-25T06:46:31.321Z,68.78
2017-04-25T06:47:29.871Z,69.51
2017-04-25T06:48:28.376Z,69.70
2017-04-25T06:49:26.905Z,70.14
2017-04-25T06:50:25.573Z,69.85
2017-04-25T06:51:24.059Z,69.24
2017-04-25T06:52:22.645Z,67.74
2017-04-25T06:53:21.161Z,68.56
2017-04-25T06:54:19.740Z,68.50
2017-04-25T06:55:18.270Z,68.57
2017-04-25T06:56:17.308Z,65.51
2017-04-25T06:57:15.916Z,63.15
2017-04-25T06:58:14.420Z,63.89
2017-04-25T06:59:12.925Z,65.10
2017-04-25T07:00:11.540Z,66.22
2017-04-25T07:01:10.323Z,66.01
2017-04-25T07:02:08.865Z,64.62
2017-04-25T07:03:07.411Z,65.46
2017-04-25T07:04:05.952Z,65.52
2017-04-25T07:05:04.527Z,65.37
2017-04-25T07:06:03.032Z,64.93
2017-04-25T07:07:01.615Z,65.11
2017-04-25T07:08:00.144Z,64.96
2017-04-25T07:08:58.715Z,64.78
2017-04-25T07:09:57.277Z,64.93
2017-04-25T07:10:55.900Z,64.99
2017-04-25T07:11:54.404Z,64.40
2017-04-25T07:12:52.949Z,64.42
2017-04-25T07:13:51.751Z,62.89
2017-04-25T07:14:50.260Z,63.63
2017-04-25T07:15:48.839Z,63.76
2017-04-25T07:16:47.687Z,63.54
2017-04-25T07:17:46.217Z,63.46
2017-04-25T07:18:44.804Z,62.97
2017-04-25T07:19:43.361Z,62.84
2017-04-25T07:20:41.963Z,62.60
2017-04-25T07:21:40.591Z,62.65
2017-04-25T07:22:39.133Z,63.32
2017-04-25T07:23:37.687Z,62.42
2017-04-25T07:24:36.308Z,63.01
2017-04-25T07:25:34.835Z,62.73
2017-04-25T07:26:33.468Z,62.69
2017-04-25T07:27:32.103Z,62.37
2017-04-25T07:28:30.619Z,62.28
2017-04-25T07:29:29.126Z,62.27
2017-04-25T07:30:27.632Z,61.99
2017-04-25T07:31:26.145Z,62.52
2017-04-25T07:32:24.718Z,61.61
2017-04-25T07:33:23.315Z,61.90
2017-04-25T07:34:22.363Z,61.59
2017-04-25T07:35:20.899Z,62.15
2017-04-25T07:36:19.396Z,62.20
2017-04-25T07:37:17.987Z,61.98
2017-04-25T07:38:16.488Z,61.25
2017-04-25T07:39:15.063Z,60.61
2017-04-25T07:40:13.564Z,60.88
2017-04-25T07:41:12.152Z,60.99
2017-04-25T07:42:10.678Z,60.85
2017-04-25T07:43:09.179Z,60.84
2017-04-25T07:44:07.931Z,61.55
2017-04-25T07:45:06.511Z,61.12
2017-04-25T07:46:05.019Z,60.56
2017-04-25T07:47:03.536Z,61.16
2017-04-25T07:48:02.070Z,60.00
2017-04-25T07:49:00.700Z,60.21
2017-04-25T07:49:59.220Z,59.87
2017-04-25T07:50:57.727Z,59.22
2017-04-25T07:51:56.248Z,59.54
2017-04-25T07:52:54.755Z,58.71
2017-04-25T07:53:53.279Z,58.90
2017-04-25T07:54:52.039Z,59.32
2017-04-25T07:55:50.566Z,60.14
2017-04-25T07:56:49.117Z,60.15
2017-04-25T07:57:47.637Z,59.58
2017-04-25T07:58:46.209Z,59.91
2017-04-25T07:59:44.819Z,59.42
2017-04-25T08:00:43.554Z,59.77
2017-04-25T08:01:42.141Z,59.63
2017-04-25T08:02:40.699Z,60.31
2017-04-25T08:03:39.291Z,59.90
2017-04-25T08:04:37.803Z,59.46
2017-04-25T08:05:36.521Z,58.70
2017-04-25T08:06:34.996Z,58.17
2017-04-25T08:07:33.520Z,57.61
2017-04-25T08:08:32.076Z,57.39
2017-04-25T08:09:30.690Z,57.20
2017-04-25T08:10:29.241Z,57.55
2017-04-25T08:11:27.847Z,57.09
2017-04-25T08:12:26.385Z,57.61
2017-04-25T08:13:24.914Z,56.85
2017-04-25T08:14:23.524Z,56.71
2017-04-25T08:15:22.087Z,57.00
2017-04-25T08:16:20.944Z,57.27
2017-04-25T08:17:19.480Z,57.11
2017-04-25T08:18:18.000Z,56.94
2017-04-25T08:19:16.545Z,56.97
2017-04-25T08:20:15.078Z,56.76
2017-04-25T08:21:13.652Z,56.68
2017-04-25T08:22:12.261Z,56.38
2017-04-25T08:23:10.855Z,56.24
2017-04-25T08:24:09.394Z,54.23
2017-04-25T08:25:07.926Z,53.45
2017-04-25T08:26:06.598Z,51.96
2017-04-25T08:27:05.366Z,52.29
2017-04-25T08:28:04.027Z,52.20
2017-04-25T08:29:02.588Z,52.10
2017-04-25T08:30:01.123Z,52.47
2017-04-25T08:30:59.677Z,51.94
2017-04-25T08:31:58.243Z,52.39
2017-04-25T08:32:56.852Z,52.32
2017-04-25T08:33:55.443Z,52.76
2017-04-25T08:34:54.023Z,51.22
2017-04-25T08:35:52.512Z,50.80
2017-04-25T08:36:51.056Z,50.44
2017-04-25T08:37:49.736Z,50.79
2017-04-25T08:38:48.271Z,51.20
2017-04-25T08:39:46.842Z,50.10
2017-04-25T08:40:45.361Z,49.23
2017-04-25T08:41:43.875Z,50.16
2017-04-25T08:42:42.367Z,50.69
2017-04-25T08:43:40.963Z,50.06
2017-04-25T08:44:39.590Z,50.59
2017-04-25T08:45:38.150Z,49.71
2017-04-25T08:46:36.662Z,50.33
2017-04-25T08:47:35.198Z,50.40
2017-04-25T08:48:33.884Z,50.54
2017-04-25T08:49:32.423Z,50.27
2017-04-25T08:50:30.972Z,50.66
2017-04-25T08:51:29.568Z,50.91
2017-04-25T08:52:28.208Z,50.22
2017-04-25T08:53:26.812Z,49.93
2017-04-25T08:54:25.364Z,48.74
2017-04-25T08:55:23.863Z,48.52
2017-04-25T08:56:22.377Z,48.84
2017-04-25T08:57:20.887Z,49.05
2017-04-25T08:58:19.463Z,48.40
2017-04-25T08:59:18.071Z,47.61
2017-04-25T09:00:16.723Z,46.40
2017-04-25T09:01:15.485Z,46.25
2017-04-25T09:02:14.248Z,44.28
2017-04-25T09:03:12.853Z,42.38
2017-04-25T09:04:11.532Z,41.74
2017-04-25T09:05:10.119Z,41.89
2017-04-25T09:06:09.117Z,42.28
2017-04-25T09:07:07.651Z,42.73
2017-04-25T09:08:06.165Z,43.22
2017-04-25T09:09:05.471Z,43.32
2017-04-25T09:10:04.141Z,43.31
2017-04-25T09:11:02.703Z,43.48
2017-04-25T09:12:01.435Z,43.62
2017-04-25T09:12:59.971Z,43.26
2017-04-25T09:13:58.516Z,42.87
2017-04-25T09:14:57.023Z,42.37
2017-04-25T09:15:55.531Z,42.72
2017-04-25T09:16:54.036Z,43.33
2017-04-25T09:17:52.636Z,43.19
2017-04-25T09:18:51.136Z,43.30
2017-04-25T09:19:49.761Z,43.41
2017-04-25T09:20:48.480Z,43.36
2017-04-25T09:21:47.064Z,43.71
2017-04-25T09:22:45.755Z,43.92
2017-04-25T09:23:44.312Z,44.60
2017-04-25T09:24:42.915Z,44.57
2017-04-25T09:25:41.479Z,44.19
2017-04-25T09:26:40.046Z,44.58
2017-04-25T09:27:38.599Z,44.96
2017-04-25T09:28:37.138Z,43.96
2017-04-25T09:29:35.864Z,44.95
2017-04-25T09:30:34.378Z,45.01
2017-04-25T09:31:33.734Z,45.55
2017-04-25T09:32:32.314Z,45.66
2017-04-25T09:33:31.159Z,45.48
2017-04-25T09:34:29.687Z,45.50
2017-04-25T09:35:28.181Z,45.83
2017-04-25T09:36:26.791Z,45.70
2017-04-25T09:37:25.444Z,46.09
2017-04-25T09:38:24.244Z,44.48
2017-04-25T09:39:22.783Z,44.67
2017-04-25T09:40:21.356Z,44.43
2017-04-25T09:41:19.869Z,44.55
2017-04-25T09:42:18.411Z,45.14
2017-04-25T09:43:16.957Z,44.25
2017-04-25T09:44:15.613Z,43.56
2017-04-25T09:45:14.162Z,44.30
2017-04-25T09:46:12.747Z,42.71
2017-04-25T09:47:11.274Z,42.37
2017-04-25T09:48:09.792Z,42.66
2017-04-25T09:49:08.374Z,42.55
2017-04-25T09:50:06.909Z,42.60
2017-04-25T09:51:05.428Z,42.56
2017-04-25T09:52:04.096Z,42.58
2017-04-25T09:53:02.703Z,42.78
2017-04-25T09:54:01.503Z,43.26
2017-04-25T09:55:00.011Z,43.43
2017-04-25T09:55:58.550Z,43.45
2017-04-25T09:56:57.050Z,42.60
2017-04-25T09:57:55.577Z,42.30
2017-04-25T09:58:54.083Z,42.81
2017-04-25T09:59:52.688Z,43.65
2017-04-25T10:00:51.186Z,43.53
2017-04-25T10:01:49.723Z,43.05
2017-04-25T10:02:48.203Z,42.83
2017-04-25T10:03:46.820Z,42.52
2017-04-25T10:04:45.559Z,42.76
2017-04-25T10:05:44.087Z,42.75
2017-04-25T10:06:42.616Z,41.96
2017-04-25T10:07:41.156Z,42.79
2017-04-25T10:08:39.687Z,43.24
2017-04-25T10:09:38.342Z,43.64
2017-04-25T10:10:36.961Z,45.07
2017-04-25T10:11:35.505Z,45.74
2017-04-25T10:12:34.193Z,46.19
2017-04-25T10:13:32.693Z,46.30
2017-04-25T10:14:31.261Z,46.54
2017-04-25T10:15:30.208Z,45.63
2017-04-25T10:16:28.731Z,45.39
2017-04-25T10:17:27.263Z,45.39
2017-04-25T10:18:25.779Z,42.37
2017-04-25T10:19:24.375Z,42.53
2017-04-25T10:20:22.904Z,42.79
2017-04-25T10:21:21.515Z,42.45
2017-04-25T10:22:20.038Z,41.55
2017-04-25T10:23:18.567Z,41.80
2017-04-25T10:24:17.083Z,41.75
2017-04-25T10:25:15.654Z,40.96
2017-04-25T10:26:14.307Z,41.81
2017-04-25T10:27:13.076Z,41.16
2017-04-25T10:28:11.593Z,41.58
2017-04-25T10:29:10.126Z,42.36
2017-04-25T10:30:08.794Z,42.67
2017-04-25T10:31:07.389Z,41.92
2017-04-25T10:32:06.003Z,42.48
2017-04-25T10:33:04.816Z,43.47
2017-04-25T10:34:03.349Z,43.53
2017-04-25T10:35:01.952Z,43.85
2017-04-25T10:36:00.480Z,42.89
2017-04-25T10:36:59.007Z,42.96
2017-04-25T10:37:57.775Z,43.67
2017-04-25T10:38:56.360Z,43.68
2017-04-25T10:39:54.879Z,43.65
2017-04-25T10:40:53.396Z,43.95
2017-04-25T10:41:51.940Z,44.33
2017-04-25T10:42:50.473Z,44.76
2017-04-25T10:43:49.153Z,45.24
2017-04-25T10:44:47.656Z,45.64
2017-04-25T10:45:46.217Z,45.72
2017-04-25T10:46:44.819Z,46.13
2017-04-25T10:47:43.375Z,45.79
2017-04-25T10:48:41.904Z,44.63
2017-04-25T10:49:40.502Z,44.54
2017-04-25T10:50:39.678Z,45.21
2017-04-25T10:51:38.288Z,44.59
2017-04-25T10:52:36.866Z,44.52
2017-04-25T10:53:35.507Z,44.52
2017-04-25T10:54:34.275Z,45.16
2017-04-25T10:55:32.820Z,45.46
2017-04-25T10:56:31.364Z,44.95
2017-04-25T10:57:29.871Z,44.14
2017-04-25T10:58:28.427Z,43.80
2017-04-25T10:59:26.957Z,43.21
2017-04-25T11:00:25.471Z,42.29
2017-04-25T11:01:24.012Z,42.11
2017-04-25T11:02:22.646Z,42.70
2017-04-25T11:03:21.185Z,41.90
2017-04-25T11:04:19.783Z,41.60
2017-04-25T11:05:18.559Z,42.08
2017-04-25T11:06:17.200Z,42.51
2017-04-25T11:07:15.796Z,42.44
2017-04-25T11:08:14.358Z,42.84
2017-04-25T11:09:13.049Z,42.96
2017-04-25T11:10:11.605Z,42.95
2017-04-25T11:11:10.396Z,43.28
2017-04-25T11:12:09.483Z,43.27
2017-04-25T11:13:07.999Z,43.44
2017-04-25T11:14:06.539Z,43.24
2017-04-25T11:15:05.109Z,42.72
2017-04-25T11:16:03.687Z,42.05
2017-04-25T11:17:02.259Z,41.96
2017-04-25T11:18:00.864Z,41.39
2017-04-25T11:18:59.469Z,41.37
2017-04-25T11:19:57.971Z,41.90
2017-04-25T11:20:56.523Z,42.30
2017-04-25T11:21:55.115Z,42.47
2017-04-25T11:22:53.823Z,42.75
2017-04-25T11:23:52.443Z,43.10
2017-04-25T11:24:50.944Z,43.36
2017-04-25T11:25:49.479Z,43.50
2017-04-25T11:26:48.279Z,43.18
2017-04-25T11:27:47.077Z,43.65
2017-04-25T11:28:45.647Z,43.28
2017-04-25T11:29:44.200Z,42.86
2017-04-25T11:30:42.836Z,42.31
2017-04-25T11:31:41.380Z,41.52
2017-04-25T11:32:39.961Z,41.89
2017-04-25T11:33:38.455Z,41.62
2017-04-25T11:34:36.954Z,41.75
2017-04-25T11:35:35.550Z,41.67
2017-04-25T11:36:34.144Z,41.69
2017-04-25T11:37:32.911Z,42.07
2017-04-25T11:38:31.448Z,41.80
2017-04-25T11:39:30.098Z,40.96
2017-04-25T11:40:28.801Z,41.21
2017-04-25T11:41:27.442Z,40.72
2017-04-25T11:42:26.035Z,39.02
2017-04-25T11:43:24.594Z,38.69
2017-04-25T11:44:23.151Z,38.62
2017-04-25T11:45:21.700Z,38.10
2017-04-25T11:46:20.191Z,39.42
2017-04-25T11:47:18.747Z,39.51
2017-04-25T11:48:18.176Z,40.34
2017-04-25T11:49:17.084Z,40.72
2017-04-25T11:50:15.587Z,41.74
2017-04-25T11:51:14.124Z,42.16
2017-04-25T11:52:12.631Z,41.75
2017-04-25T11:53:11.223Z,41.43
2017-04-25T11:54:10.015Z,42.01
2017-04-25T11:55:08.561Z,42.53
2017-04-25T11:56:07.066Z,43.06
2017-04-25T11:57:05.640Z,45.12
2017-04-25T11:58:04.167Z,46.54
2017-04-25T11:59:02.755Z,47.49
2017-04-25T12:00:01.785Z,48.65
2017-04-25T12:01:00.328Z,49.21
2017-04-25T12:01:58.908Z,49.83
2017-04-25T12:02:57.479Z,49.96
2017-04-25T12:03:56.003Z,49.14
2017-04-25T12:04:54.498Z,49.57
2017-04-25T12:05:53.412Z,50.02
2017-04-25T12:06:51.939Z,50.41
2017-04-25T12:07:50.452Z,51.07
2017-04-25T12:08:48.984Z,51.40
2017-04-25T12:09:47.513Z,50.86
2017-04-25T12:10:46.080Z,51.13
2017-04-25T12:11:44.680Z,51.61
2017-04-25T12:12:43.205Z,51.38
2017-04-25T12:13:41.731Z,50.80
2017-04-25T12:14:40.264Z,50.27
2017-04-25T12:15:38.836Z,49.14
2017-04-25T12:16:37.533Z,49.04
2017-04-25T12:17:36.836Z,49.65
2017-04-25T12:18:35.339Z,49.39
2017-04-25T12:19:33.912Z,49.15
2017-04-25T12:20:32.491Z,49.05
2017-04-25T12:21:31.270Z,48.89
2017-04-25T12:22:29.866Z,48.65
2017-04-25T12:23:28.395Z,48.02
2017-04-25T12:24:26.886Z,46.91
2017-04-25T12:25:26.955Z,46.52
2017-04-25T12:26:25.492Z,46.18
2017-04-25T12:27:24.315Z,45.58
2017-04-25T12:28:22.831Z,45.40
2017-04-25T12:29:21.345Z,44.97
2017-04-25T12:30:19.858Z,44.85
2017-04-25T12:31:18.380Z,45.17
2017-04-25T12:32:16.904Z,45.00
2017-04-25T12:33:15.616Z,44.88
2017-04-25T12:34:14.160Z,44.35